Cimarron Hills, Colorado
Current Conditions -  °F | °C
As of 1:54 AM on Wednesday 22 Oct 2014 (Local Time) from KCOS Reporting Station
Broken Clouds Broken Clouds  
Wind Chill: 58°   Ceiling: 11000
Heat Index: 58°   Visibility: 10mi
Dew Point: 38°   Wind: 7mph
Humidity: 47%   Direction: 330°NNW
Pressure: 30.01"   Gusts: NA
Location:  38.86°N, 104.69°W
Report Text: KCOS 220754Z 33006KT 10SM BKN110 BKN200 14/03 A3001 RMK AO2 SLP088 T01440033
Loading
Personal Weather Stations






























Interactive Weather Map
Tropical Storm Tracking
New forecast layout! Learn more

10-Day Weather Forecast

Advertisements
Track Severe Weather on mobile